Česky Dansk Deutsch English Español Suomi Français Magyar Italiano Nederlands norsk Polski Português svenska Türkçe

 

Het Weer

Geilenkirchen (Duitsland)

02:50, 3 august 2016 (GMT)

NWNNE
WE
SWSSE
Home            
Geilenkirchen Aachen / Merzbruck Maastricht Airport Zuid Limburg Brueggen Genk Monchengladbach Noervenich Kleine Brogel Spa / La Sauveniere Bierset Elsenborn Duesseldorf Sint-Truiden Schaffen Eindhoven Laarbruch Niederrhein Koeln / Bonn Volkel Goetsenhoven Essen Kalkar Weelde Military

Om een weerknop op uw website of weblog te plaatsen, copieer onderstaande code en plak die in uw pagina. In het eerste vakje staat HTML-code, in het tweede vakje UBB-code.


Add to Google

Details

Wind speed:3 bf, 9 kn, 4.6 m/s, 10.4 miles/h, 16.7 km/h
Wind direction:SW, 220°
Sigtbarheden: 4000 m, 4.0 km, 13123 ft, 2.5 miles
Clouds:Brudte at 1000 ft, 305 m
Brudte at 1500 ft, 457 m
Het Weer:let finregn regn
Temperaturen:18°C, 64°F
Dugpunkt:17°C, 63°F
Lufttrykket:1012 hPa, 759.1 mmHg, 29.88 inHg, 0.999 atm
Relative luftfugtigheden:93.9 %
METAR:ETNG 030250Z 22009KT 4000 -DZRA BKN010 BKN015 18/17 Q1012 REDZ

Snelkoppelingen

Actuele weersinformatie van de hele wereld. Voeg locaties toe met het plus (+) symbool. Deze snelkoppelingen kunnen worden toegevoegd aan Google.

Lid van de Technetium groep

website free tracking
StatCounter NetStat W3C Validator

21-01-2022 02:26:25
astro.technetium.be money.technetium.be phote.technetium.be tafeltennistafel.technetium.be www.ligfiets.net